Pagina principale
METAR-TAF:

METAR-TAF

Aeroporti :

Aeroporto di Tolone-Hyères

Tolone, Francia

latitudine: 43-06N, longitudine: 006-09E, altezza: 3 m

Osservazione

Il bollettino è stato emesso 41 minuti fa, alle 12:30 UTC
Vento 9 kt da nord, variando fra nord-ovest e nord/nord-est
Temperature 13°C
Umidità 30%
Pressione 997 hPa
Visibilità 10 km o più
nessuna nube inferiore a 1500 m e nessun cumulonembo

METAR: LFTH 241230Z AUTO 35009KT 320V020 CAVOK 13/M04 Q0997 NOSIG

Ora: 14:11 (13:11 UTC)

Previsione

Il bollettino è stato emesso 5 ore e 11 minuti fa, alle 08:00 UTC
Previsione valida dal 24 alle 09 UTC al 25 alle 09 UTC
Vento 6 kt da nord
Visibilità 10 km o più
nessuna nube inferiore a 1500 m e nessun cumulonembo

TAF: LFTH 240800Z 2409/2509 36006KT CAVOK

Osservazioni e previsioni meteorologiche di più di 4000 aeroporti (messaggi METAR e TAF).

Le stazioni disponibili sono rappresentate dai dischi gialli e rossi sulla carta.

Puntare il mouse per vedere il nome della stazione.

Clicca sopra per visualizzare le osservazioni e previsioni meteorologiche.

Per cambiare la mappa : fare clic sui pulsanti verdi con una croce nera per ingrandire, il pulsante verde con un trattino per diminuire, o sulla freccia verde per le mappe adiacenti.


METAR-TAF: